메인 페이지
METAR-TAF:

METAR-TAF

공항 :

밴쿠버, 브리티시컬럼비아, 캐나다

밴쿠버 국제공항

위도: 49-11N, 경도: 123-10W, 고도: 3m

현재 날씨관측

예보는 57분 전, 20:00시(UTC)에 발표되었습니다.
5kt남서풍과 서북서풍을 오가는
온도 11°C
습도 76%
기압 1025 hPa
시정: 48.3km
고도 4500ft 상공 구름 조금
고도 21000ft 상공 구름 보통
고도 25000ft 상공 흐림

METAR: CYVR 192000Z 27005KT 230V300 30SM FEW045 SCT210 OVC250 11/07 A3027 RMK CU1CS2CS5 HALO CONTRAILS SLP251

시각: 13:57 (20:57 UTC)

예보

예보는 19분 전, 20:38시(UTC)에 발표되었습니다.
예보 대상 시간: 19일 21시부터 20일 24시까지 (UTC)
7kt
시정: 10km
고도 5000ft 상공 구름 조금
고도 24000ft 상공 구름 많음
20일 0000시부터 (UTC)
5kt
시정: 10km
고도 6000ft 상공 구름 조금
고도 16000ft 상공 구름 보통
고도 22000ft 상공 구름 많음
전환 중
20일 04시부터 20일 06시까지 (UTC)
7kt
20일 0600시부터 (UTC)
7kt
시정: 10km
고도 6000ft 상공 구름 보통
고도 14000ft 상공 구름 많음
20일 2100시부터 (UTC)
동남동7kt
시정: 10km
고도 3000ft 상공 구름 보통
고도 6000ft 상공 흐림
약한소나기

TAF: CYVR 192038Z 1921/2024 26007KT P6SM FEW050 BKN240 FM200000 26005KT P6SM FEW060 SCT160 BKN220 BECMG 2004/2006 09007KT FM200600 09007KT P6SM SCT060 BKN140 FM202100 12007KT P6SM -SHRA SCT030 OVC060 RMK NXT FCST BY 200000Z

4,000개 이상의 공항 관측 자료 및 예보 (METAR 및 TAF 보고).

지도상에서 검색 가능한 기상관측소가 노란 점과 빨간 점으로 표시되어 있습니다.

기상관측소 명을 보려면 표시 위로 마우스를 이동하세요.

날씨 관측과 예보를 보려면 클릭하세요.

지도 변경 : 확대하려면 엑스 표시가 있는 녹색 버튼, 축소하려면 빼기 표시가 있는 녹색 버튼, 다음 페이지의 지도를 보려면 녹색 화살표를 클릭하세요.


METAR-TAF: